sensor_id;sensor_type;location;lat;lon;timestamp;P1;durP1;ratioP1;P2;durP2;ratioP2
28353;SDS011;15603;50.878;8.036;2023-10-19T00:00:40;2.55;;;1.23;;
28353;SDS011;15603;50.878;8.036;2023-10-19T00:03:11;5.03;;;1.35;;
28353;SDS011;15603;50.878;8.036;2023-10-19T00:05:39;2.05;;;1.20;;
28353;SDS011;15603;50.878;8.036;2023-10-19T00:08:08;4.32;;;1.55;;
28353;SDS011;15603;50.878;8.036;2023-10-19T00:10:49;2.13;;;1.10;;
28353;SDS011;15603;50.878;8.036;2023-10-19T00:13:43;1.52;;;1.00;;
28353;SDS011;15603;50.878;8.036;2023-10-19T00:16:11;2.30;;;1.13;;
28353;SDS011;15603;50.878;8.036;2023-10-19T00:18:45;1.00;;;0.60;;
28353;SDS011;15603;50.878;8.036;2023-10-19T00:21:15;2.38;;;1.10;;
28353;SDS011;15603;50.878;8.036;2023-10-19T00:23:53;1.83;;;0.90;;
28353;SDS011;15603;50.878;8.036;2023-10-19T00:29:01;1.67;;;1.00;;
28353;SDS011;15603;50.878;8.036;2023-10-19T00:31:45;0.77;;;0.70;;
28353;SDS011;15603;50.878;8.036;2023-10-19T00:34:13;1.48;;;0.88;;
28353;SDS011;15603;50.878;8.036;2023-10-19T00:36:41;1.25;;;0.77;;
28353;SDS011;15603;50.878;8.036;2023-10-19T00:39:08;1.58;;;0.98;;
28353;SDS011;15603;50.878;8.036;2023-10-19T00:41:43;2.55;;;1.00;;
28353;SDS011;15603;50.878;8.036;2023-10-19T00:44:12;2.35;;;1.02;;
28353;SDS011;15603;50.878;8.036;2023-10-19T00:46:42;1.75;;;0.77;;
28353;SDS011;15603;50.878;8.036;2023-10-19T00:49:11;1.90;;;1.10;;
28353;SDS011;15603;50.878;8.036;2023-10-19T00:51:42;1.40;;;1.30;;
28353;SDS011;15603;50.878;8.036;2023-10-19T00:54:33;2.28;;;1.00;;
28353;SDS011;15603;50.878;8.036;2023-10-19T00:57:07;1.88;;;1.30;;
28353;SDS011;15603;50.878;8.036;2023-10-19T00:59:37;1.40;;;1.10;;
28353;SDS011;15603;50.878;8.036;2023-10-19T01:02:10;2.17;;;1.33;;
28353;SDS011;15603;50.878;8.036;2023-10-19T01:04:48;2.65;;;1.30;;
28353;SDS011;15603;50.878;8.036;2023-10-19T01:07:18;2.33;;;1.40;;
28353;SDS011;15603;50.878;8.036;2023-10-19T01:09:55;4.07;;;1.35;;
28353;SDS011;15603;50.878;8.036;2023-10-19T01:12:26;2.53;;;1.50;;
28353;SDS011;15603;50.878;8.036;2023-10-19T01:15:01;3.15;;;1.35;;
28353;SDS011;15603;50.878;8.036;2023-10-19T01:17:47;2.45;;;1.20;;
28353;SDS011;15603;50.878;8.036;2023-10-19T01:20:28;2.05;;;1.33;;
28353;SDS011;15603;50.878;8.036;2023-10-19T01:23:06;1.85;;;1.30;;
28353;SDS011;15603;50.878;8.036;2023-10-19T01:25:45;3.38;;;1.08;;
28353;SDS011;15603;50.878;8.036;2023-10-19T01:28:17;2.67;;;1.65;;
28353;SDS011;15603;50.878;8.036;2023-10-19T01:30:45;2.30;;;1.50;;
28353;SDS011;15603;50.878;8.036;2023-10-19T01:33:13;4.28;;;1.65;;
28353;SDS011;15603;50.878;8.036;2023-10-19T01:35:42;3.15;;;1.73;;
28353;SDS011;15603;50.878;8.036;2023-10-19T01:38:28;2.60;;;1.60;;
28353;SDS011;15603;50.878;8.036;2023-10-19T01:41:00;5.28;;;1.60;;
28353;SDS011;15603;50.878;8.036;2023-10-19T01:43:28;3.45;;;1.60;;
28353;SDS011;15603;50.878;8.036;2023-10-19T01:45:58;3.38;;;1.50;;
28353;SDS011;15603;50.878;8.036;2023-10-19T01:48:46;4.80;;;2.17;;
28353;SDS011;15603;50.878;8.036;2023-10-19T01:51:13;7.20;;;2.70;;
28353;SDS011;15603;50.878;8.036;2023-10-19T01:53:41;9.50;;;2.90;;
28353;SDS011;15603;50.878;8.036;2023-10-19T01:56:13;4.97;;;2.53;;
28353;SDS011;15603;50.878;8.036;2023-10-19T01:58:42;5.03;;;2.35;;
28353;SDS011;15603;50.878;8.036;2023-10-19T02:01:13;8.40;;;2.60;;
28353;SDS011;15603;50.878;8.036;2023-10-19T02:03:43;4.38;;;2.45;;
28353;SDS011;15603;50.878;8.036;2023-10-19T02:06:11;3.42;;;1.70;;
28353;SDS011;15603;50.878;8.036;2023-10-19T02:08:48;2.85;;;1.40;;
28353;SDS011;15603;50.878;8.036;2023-10-19T02:11:23;4.32;;;1.60;;
28353;SDS011;15603;50.878;8.036;2023-10-19T02:13:55;3.33;;;1.95;;
28353;SDS011;15603;50.878;8.036;2023-10-19T02:16:42;3.17;;;1.70;;
28353;SDS011;15603;50.878;8.036;2023-10-19T02:19:20;1.65;;;1.20;;
28353;SDS011;15603;50.878;8.036;2023-10-19T02:21:52;4.60;;;1.30;;
28353;SDS011;15603;50.878;8.036;2023-10-19T02:24:20;5.60;;;1.90;;
28353;SDS011;15603;50.878;8.036;2023-10-19T02:26:49;3.88;;;1.85;;
28353;SDS011;15603;50.878;8.036;2023-10-19T02:29:21;6.95;;;3.45;;
28353;SDS011;15603;50.878;8.036;2023-10-19T02:31:54;8.27;;;3.30;;
28353;SDS011;15603;50.878;8.036;2023-10-19T02:34:23;5.95;;;2.95;;
28353;SDS011;15603;50.878;8.036;2023-10-19T02:36:50;7.03;;;3.00;;
28353;SDS011;15603;50.878;8.036;2023-10-19T02:39:17;6.93;;;2.35;;
28353;SDS011;15603;50.878;8.036;2023-10-19T02:41:45;6.15;;;2.63;;
28353;SDS011;15603;50.878;8.036;2023-10-19T02:44:18;5.53;;;2.88;;
28353;SDS011;15603;50.878;8.036;2023-10-19T02:46:53;5.28;;;2.65;;
28353;SDS011;15603;50.878;8.036;2023-10-19T02:49:32;5.82;;;2.65;;
28353;SDS011;15603;50.878;8.036;2023-10-19T02:52:05;3.63;;;1.63;;
28353;SDS011;15603;50.878;8.036;2023-10-19T02:54:32;2.88;;;1.70;;
28353;SDS011;15603;50.878;8.036;2023-10-19T02:57:00;4.28;;;2.15;;
28353;SDS011;15603;50.878;8.036;2023-10-19T02:59:29;3.40;;;1.73;;
28353;SDS011;15603;50.878;8.036;2023-10-19T03:01:57;5.05;;;2.53;;
28353;SDS011;15603;50.878;8.036;2023-10-19T03:04:34;3.83;;;2.03;;
28353;SDS011;15603;50.878;8.036;2023-10-19T03:07:04;5.38;;;1.90;;
28353;SDS011;15603;50.878;8.036;2023-10-19T03:09:32;4.60;;;1.95;;
28353;SDS011;15603;50.878;8.036;2023-10-19T03:12:03;3.47;;;2.00;;
28353;SDS011;15603;50.878;8.036;2023-10-19T03:14:31;4.15;;;1.85;;
28353;SDS011;15603;50.878;8.036;2023-10-19T03:17:00;2.83;;;1.67;;
28353;SDS011;15603;50.878;8.036;2023-10-19T03:19:28;5.72;;;2.35;;
28353;SDS011;15603;50.878;8.036;2023-10-19T03:21:55;3.65;;;2.05;;
28353;SDS011;15603;50.878;8.036;2023-10-19T03:24:26;3.85;;;2.15;;
28353;SDS011;15603;50.878;8.036;2023-10-19T03:27:05;3.88;;;1.98;;
28353;SDS011;15603;50.878;8.036;2023-10-19T03:29:59;3.97;;;2.53;;
28353;SDS011;15603;50.878;8.036;2023-10-19T03:32:26;4.65;;;2.40;;
28353;SDS011;15603;50.878;8.036;2023-10-19T03:34:55;2.90;;;2.17;;
28353;SDS011;15603;50.878;8.036;2023-10-19T03:37:24;5.15;;;2.13;;
28353;SDS011;15603;50.878;8.036;2023-10-19T03:39:53;4.18;;;2.08;;
28353;SDS011;15603;50.878;8.036;2023-10-19T03:42:26;5.10;;;2.38;;
28353;SDS011;15603;50.878;8.036;2023-10-19T03:44:59;2.50;;;1.80;;
28353;SDS011;15603;50.878;8.036;2023-10-19T03:47:29;3.80;;;1.95;;
28353;SDS011;15603;50.878;8.036;2023-10-19T03:50:03;4.93;;;2.00;;
28353;SDS011;15603;50.878;8.036;2023-10-19T03:52:35;5.47;;;2.25;;
28353;SDS011;15603;50.878;8.036;2023-10-19T03:55:04;3.38;;;2.25;;
28353;SDS011;15603;50.878;8.036;2023-10-19T03:57:37;6.00;;;1.98;;
28353;SDS011;15603;50.878;8.036;2023-10-19T04:00:17;4.78;;;2.58;;
28353;SDS011;15603;50.878;8.036;2023-10-19T04:02:51;4.63;;;2.80;;
28353;SDS011;15603;50.878;8.036;2023-10-19T04:05:20;7.38;;;3.17;;
28353;SDS011;15603;50.878;8.036;2023-10-19T04:07:50;4.72;;;2.65;;
28353;SDS011;15603;50.878;8.036;2023-10-19T04:10:21;3.90;;;2.20;;
28353;SDS011;15603;50.878;8.036;2023-10-19T04:13:18;4.97;;;2.55;;
28353;SDS011;15603;50.878;8.036;2023-10-19T04:15:45;5.85;;;2.47;;
28353;SDS011;15603;50.878;8.036;2023-10-19T04:18:16;5.30;;;3.20;;
28353;SDS011;15603;50.878;8.036;2023-10-19T04:20:43;5.25;;;3.10;;
28353;SDS011;15603;50.878;8.036;2023-10-19T04:23:20;5.07;;;3.17;;
28353;SDS011;15603;50.878;8.036;2023-10-19T04:25:54;8.15;;;3.35;;
28353;SDS011;15603;50.878;8.036;2023-10-19T04:28:25;7.85;;;3.05;;
28353;SDS011;15603;50.878;8.036;2023-10-19T04:31:06;10.52;;;3.13;;
28353;SDS011;15603;50.878;8.036;2023-10-19T04:33:33;6.40;;;2.60;;
28353;SDS011;15603;50.878;8.036;2023-10-19T04:36:01;5.40;;;2.85;;
28353;SDS011;15603;50.878;8.036;2023-10-19T04:38:28;5.90;;;2.72;;
28353;SDS011;15603;50.878;8.036;2023-10-19T04:41:04;8.20;;;3.15;;
28353;SDS011;15603;50.878;8.036;2023-10-19T04:43:39;6.43;;;3.00;;
28353;SDS011;15603;50.878;8.036;2023-10-19T04:46:07;7.10;;;3.50;;
28353;SDS011;15603;50.878;8.036;2023-10-19T04:48:39;6.63;;;3.00;;
28353;SDS011;15603;50.878;8.036;2023-10-19T04:51:07;5.90;;;2.97;;
28353;SDS011;15603;50.878;8.036;2023-10-19T04:53:36;6.32;;;2.75;;
28353;SDS011;15603;50.878;8.036;2023-10-19T04:56:04;5.85;;;2.78;;
28353;SDS011;15603;50.878;8.036;2023-10-19T04:58:32;4.53;;;2.83;;
28353;SDS011;15603;50.878;8.036;2023-10-19T05:01:00;5.07;;;3.08;;
28353;SDS011;15603;50.878;8.036;2023-10-19T05:03:28;12.55;;;3.53;;
28353;SDS011;15603;50.878;8.036;2023-10-19T05:05:56;10.55;;;3.22;;
28353;SDS011;15603;50.878;8.036;2023-10-19T05:08:23;9.30;;;4.22;;
28353;SDS011;15603;50.878;8.036;2023-10-19T05:10:55;5.68;;;3.20;;
28353;SDS011;15603;50.878;8.036;2023-10-19T05:13:23;15.77;;;3.55;;
28353;SDS011;15603;50.878;8.036;2023-10-19T05:15:53;11.07;;;3.75;;
28353;SDS011;15603;50.878;8.036;2023-10-19T05:18:21;8.68;;;3.20;;
28353;SDS011;15603;50.878;8.036;2023-10-19T05:20:49;10.63;;;3.80;;
28353;SDS011;15603;50.878;8.036;2023-10-19T05:23:22;13.00;;;3.97;;
28353;SDS011;15603;50.878;8.036;2023-10-19T05:25:52;9.35;;;3.55;;
28353;SDS011;15603;50.878;8.036;2023-10-19T05:28:20;5.97;;;3.47;;
28353;SDS011;15603;50.878;8.036;2023-10-19T05:30:48;7.40;;;3.47;;
28353;SDS011;15603;50.878;8.036;2023-10-19T05:33:16;6.68;;;3.40;;
28353;SDS011;15603;50.878;8.036;2023-10-19T05:35:47;9.43;;;3.30;;
28353;SDS011;15603;50.878;8.036;2023-10-19T05:38:15;10.02;;;3.63;;
28353;SDS011;15603;50.878;8.036;2023-10-19T05:40:42;15.50;;;5.22;;
28353;SDS011;15603;50.878;8.036;2023-10-19T05:43:10;8.77;;;4.10;;
28353;SDS011;15603;50.878;8.036;2023-10-19T05:45:38;7.40;;;3.22;;
28353;SDS011;15603;50.878;8.036;2023-10-19T05:48:07;9.70;;;4.05;;
28353;SDS011;15603;50.878;8.036;2023-10-19T05:50:35;9.93;;;3.90;;
28353;SDS011;15603;50.878;8.036;2023-10-19T05:53:03;10.80;;;3.55;;
28353;SDS011;15603;50.878;8.036;2023-10-19T05:55:32;8.43;;;3.70;;
28353;SDS011;15603;50.878;8.036;2023-10-19T05:57:59;11.15;;;4.70;;
28353;SDS011;15603;50.878;8.036;2023-10-19T06:00:26;9.95;;;4.32;;
28353;SDS011;15603;50.878;8.036;2023-10-19T06:02:53;9.45;;;4.13;;
28353;SDS011;15603;50.878;8.036;2023-10-19T06:05:21;16.27;;;4.07;;
28353;SDS011;15603;50.878;8.036;2023-10-19T06:07:49;8.30;;;3.90;;
28353;SDS011;15603;50.878;8.036;2023-10-19T06:10:20;10.65;;;3.90;;
28353;SDS011;15603;50.878;8.036;2023-10-19T06:12:49;10.57;;;3.95;;
28353;SDS011;15603;50.878;8.036;2023-10-19T06:15:20;8.02;;;3.42;;
28353;SDS011;15603;50.878;8.036;2023-10-19T06:17:49;7.50;;;3.55;;
28353;SDS011;15603;50.878;8.036;2023-10-19T06:20:17;10.88;;;3.83;;
28353;SDS011;15603;50.878;8.036;2023-10-19T06:22:51;14.80;;;4.20;;
28353;SDS011;15603;50.878;8.036;2023-10-19T06:25:23;7.38;;;3.70;;
28353;SDS011;15603;50.878;8.036;2023-10-19T06:27:51;10.88;;;3.67;;
28353;SDS011;15603;50.878;8.036;2023-10-19T06:30:19;9.73;;;4.35;;
28353;SDS011;15603;50.878;8.036;2023-10-19T06:32:52;7.43;;;3.42;;
28353;SDS011;15603;50.878;8.036;2023-10-19T06:35:22;9.95;;;3.97;;
28353;SDS011;15603;50.878;8.036;2023-10-19T06:37:50;8.00;;;3.53;;
28353;SDS011;15603;50.878;8.036;2023-10-19T06:40:17;5.68;;;2.97;;
28353;SDS011;15603;50.878;8.036;2023-10-19T06:42:45;11.88;;;3.90;;
28353;SDS011;15603;50.878;8.036;2023-10-19T06:45:13;12.23;;;3.45;;
28353;SDS011;15603;50.878;8.036;2023-10-19T06:47:41;7.45;;;3.42;;
28353;SDS011;15603;50.878;8.036;2023-10-19T06:50:12;13.85;;;3.33;;
28353;SDS011;15603;50.878;8.036;2023-10-19T06:52:43;9.23;;;3.58;;
28353;SDS011;15603;50.878;8.036;2023-10-19T06:55:17;8.52;;;3.53;;
28353;SDS011;15603;50.878;8.036;2023-10-19T06:57:54;16.98;;;2.97;;
28353;SDS011;15603;50.878;8.036;2023-10-19T07:00:25;8.95;;;3.40;;
28353;SDS011;15603;50.878;8.036;2023-10-19T07:02:54;10.32;;;3.08;;
28353;SDS011;15603;50.878;8.036;2023-10-19T07:05:23;8.60;;;3.00;;
28353;SDS011;15603;50.878;8.036;2023-10-19T07:07:57;12.10;;;3.90;;
28353;SDS011;15603;50.878;8.036;2023-10-19T07:10:26;5.07;;;2.83;;
28353;SDS011;15603;50.878;8.036;2023-10-19T07:12:55;8.02;;;3.80;;
28353;SDS011;15603;50.878;8.036;2023-10-19T07:15:23;17.33;;;4.10;;
28353;SDS011;15603;50.878;8.036;2023-10-19T07:17:52;11.25;;;4.25;;
28353;SDS011;15603;50.878;8.036;2023-10-19T07:20:21;14.80;;;3.85;;
28353;SDS011;15603;50.878;8.036;2023-10-19T07:22:53;19.25;;;3.72;;
28353;SDS011;15603;50.878;8.036;2023-10-19T07:25:21;9.77;;;3.70;;
28353;SDS011;15603;50.878;8.036;2023-10-19T07:27:49;10.57;;;3.90;;
28353;SDS011;15603;50.878;8.036;2023-10-19T07:30:17;9.55;;;4.22;;
28353;SDS011;15603;50.878;8.036;2023-10-19T07:32:49;9.25;;;4.05;;
28353;SDS011;15603;50.878;8.036;2023-10-19T07:35:21;17.15;;;4.65;;
28353;SDS011;15603;50.878;8.036;2023-10-19T07:37:53;11.97;;;4.73;;
28353;SDS011;15603;50.878;8.036;2023-10-19T07:40:23;16.70;;;4.45;;
28353;SDS011;15603;50.878;8.036;2023-10-19T07:42:51;7.45;;;2.65;;
28353;SDS011;15603;50.878;8.036;2023-10-19T07:45:21;11.02;;;2.92;;
28353;SDS011;15603;50.878;8.036;2023-10-19T07:47:48;12.10;;;3.13;;
28353;SDS011;15603;50.878;8.036;2023-10-19T07:50:15;8.63;;;3.20;;
28353;SDS011;15603;50.878;8.036;2023-10-19T07:52:43;14.13;;;3.22;;
28353;SDS011;15603;50.878;8.036;2023-10-19T07:55:11;12.63;;;2.97;;
28353;SDS011;15603;50.878;8.036;2023-10-19T07:57:38;15.57;;;3.30;;
28353;SDS011;15603;50.878;8.036;2023-10-19T08:00:07;11.02;;;3.58;;
28353;SDS011;15603;50.878;8.036;2023-10-19T08:02:37;16.33;;;4.05;;
28353;SDS011;15603;50.878;8.036;2023-10-19T08:05:13;14.73;;;4.00;;
28353;SDS011;15603;50.878;8.036;2023-10-19T08:07:41;17.08;;;4.60;;
28353;SDS011;15603;50.878;8.036;2023-10-19T08:10:16;11.75;;;4.40;;
28353;SDS011;15603;50.878;8.036;2023-10-19T08:12:45;21.60;;;4.25;;
28353;SDS011;15603;50.878;8.036;2023-10-19T08:15:19;12.73;;;3.88;;
28353;SDS011;15603;50.878;8.036;2023-10-19T08:17:48;18.08;;;4.15;;
28353;SDS011;15603;50.878;8.036;2023-10-19T08:20:17;13.25;;;4.30;;
28353;SDS011;15603;50.878;8.036;2023-10-19T08:22:52;17.65;;;4.07;;
28353;SDS011;15603;50.878;8.036;2023-10-19T08:25:21;16.20;;;4.90;;
28353;SDS011;15603;50.878;8.036;2023-10-19T08:27:48;13.43;;;4.07;;
28353;SDS011;15603;50.878;8.036;2023-10-19T08:30:18;14.15;;;3.50;;
28353;SDS011;15603;50.878;8.036;2023-10-19T08:32:50;15.68;;;3.78;;
28353;SDS011;15603;50.878;8.036;2023-10-19T08:35:20;12.50;;;3.58;;
28353;SDS011;15603;50.878;8.036;2023-10-19T08:37:55;11.85;;;3.25;;
28353;SDS011;15603;50.878;8.036;2023-10-19T08:40:25;13.10;;;3.63;;
28353;SDS011;15603;50.878;8.036;2023-10-19T08:42:56;19.45;;;3.47;;
28353;SDS011;15603;50.878;8.036;2023-10-19T08:45:23;16.52;;;3.72;;
28353;SDS011;15603;50.878;8.036;2023-10-19T08:47:56;11.93;;;3.15;;
28353;SDS011;15603;50.878;8.036;2023-10-19T08:50:35;10.65;;;3.67;;
28353;SDS011;15603;50.878;8.036;2023-10-19T08:53:02;14.40;;;3.55;;
28353;SDS011;15603;50.878;8.036;2023-10-19T08:55:30;11.10;;;2.97;;
28353;SDS011;15603;50.878;8.036;2023-10-19T08:58:16;14.55;;;3.28;;
28353;SDS011;15603;50.878;8.036;2023-10-19T09:00:49;17.15;;;3.72;;
28353;SDS011;15603;50.878;8.036;2023-10-19T09:03:24;14.57;;;4.43;;
28353;SDS011;15603;50.878;8.036;2023-10-19T09:05:53;12.40;;;3.65;;
28353;SDS011;15603;50.878;8.036;2023-10-19T09:08:21;6.75;;;3.05;;
28353;SDS011;15603;50.878;8.036;2023-10-19T09:10:50;6.43;;;2.78;;
28353;SDS011;15603;50.878;8.036;2023-10-19T09:13:21;6.47;;;2.17;;
28353;SDS011;15603;50.878;8.036;2023-10-19T09:15:50;7.28;;;2.20;;
28353;SDS011;15603;50.878;8.036;2023-10-19T09:18:22;11.68;;;2.10;;
28353;SDS011;15603;50.878;8.036;2023-10-19T09:20:51;8.10;;;1.63;;
28353;SDS011;15603;50.878;8.036;2023-10-19T09:23:23;6.28;;;1.92;;
28353;SDS011;15603;50.878;8.036;2023-10-19T09:25:56;7.22;;;1.65;;
28353;SDS011;15603;50.878;8.036;2023-10-19T09:28:25;14.85;;;1.63;;
28353;SDS011;15603;50.878;8.036;2023-10-19T09:30:52;4.80;;;1.20;;
28353;SDS011;15603;50.878;8.036;2023-10-19T09:33:21;6.22;;;1.17;;
28353;SDS011;15603;50.878;8.036;2023-10-19T09:35:50;3.45;;;1.00;;
28353;SDS011;15603;50.878;8.036;2023-10-19T09:38:23;5.47;;;1.45;;
28353;SDS011;15603;50.878;8.036;2023-10-19T09:40:52;5.18;;;1.40;;
28353;SDS011;15603;50.878;8.036;2023-10-19T09:43:30;4.82;;;1.65;;
28353;SDS011;15603;50.878;8.036;2023-10-19T09:46:09;12.70;;;1.92;;
28353;SDS011;15603;50.878;8.036;2023-10-19T09:48:42;15.63;;;1.75;;
28353;SDS011;15603;50.878;8.036;2023-10-19T09:51:13;6.90;;;1.40;;
28353;SDS011;15603;50.878;8.036;2023-10-19T09:53:47;7.05;;;1.15;;
28353;SDS011;15603;50.878;8.036;2023-10-19T09:56:21;8.77;;;1.35;;
28353;SDS011;15603;50.878;8.036;2023-10-19T09:59:02;8.52;;;1.63;;
28353;SDS011;15603;50.878;8.036;2023-10-19T10:02:02;9.68;;;1.88;;
28353;SDS011;15603;50.878;8.036;2023-10-19T10:04:31;13.35;;;2.03;;
28353;SDS011;15603;50.878;8.036;2023-10-19T10:06:59;11.93;;;1.65;;
28353;SDS011;15603;50.878;8.036;2023-10-19T10:09:27;7.43;;;1.45;;
28353;SDS011;15603;50.878;8.036;2023-10-19T10:11:56;7.97;;;0.90;;
28353;SDS011;15603;50.878;8.036;2023-10-19T10:14:52;5.30;;;0.85;;
28353;SDS011;15603;50.878;8.036;2023-10-19T10:17:23;3.75;;;1.15;;
28353;SDS011;15603;50.878;8.036;2023-10-19T10:19:53;6.05;;;1.13;;
28353;SDS011;15603;50.878;8.036;2023-10-19T10:22:21;5.85;;;0.90;;
28353;SDS011;15603;50.878;8.036;2023-10-19T10:24:53;7.97;;;1.00;;
28353;SDS011;15603;50.878;8.036;2023-10-19T10:27:22;7.30;;;1.02;;
28353;SDS011;15603;50.878;8.036;2023-10-19T10:29:54;6.45;;;0.82;;
28353;SDS011;15603;50.878;8.036;2023-10-19T10:38:07;5.90;;;1.00;;
28353;SDS011;15603;50.878;8.036;2023-10-19T10:40:46;9.70;;;0.90;;
28353;SDS011;15603;50.878;8.036;2023-10-19T10:43:18;5.18;;;0.88;;
28353;SDS011;15603;50.878;8.036;2023-10-19T10:45:46;10.55;;;2.22;;
28353;SDS011;15603;50.878;8.036;2023-10-19T10:50:44;8.65;;;1.40;;
28353;SDS011;15603;50.878;8.036;2023-10-19T10:53:13;6.18;;;1.23;;
28353;SDS011;15603;50.878;8.036;2023-10-19T10:55:44;4.22;;;1.02;;
28353;SDS011;15603;50.878;8.036;2023-10-19T10:58:18;5.85;;;1.20;;
28353;SDS011;15603;50.878;8.036;2023-10-19T11:00:45;7.10;;;1.35;;
28353;SDS011;15603;50.878;8.036;2023-10-19T11:03:15;6.93;;;1.15;;
28353;SDS011;15603;50.878;8.036;2023-10-19T11:05:43;12.73;;;1.60;;
28353;SDS011;15603;50.878;8.036;2023-10-19T11:08:13;3.75;;;1.25;;
28353;SDS011;15603;50.878;8.036;2023-10-19T11:10:45;7.43;;;1.85;;
28353;SDS011;15603;50.878;8.036;2023-10-19T11:13:17;4.47;;;0.95;;
28353;SDS011;15603;50.878;8.036;2023-10-19T11:15:50;9.23;;;1.63;;
28353;SDS011;15603;50.878;8.036;2023-10-19T11:21:08;7.63;;;1.48;;
28353;SDS011;15603;50.878;8.036;2023-10-19T11:23:59;5.63;;;1.70;;
28353;SDS011;15603;50.878;8.036;2023-10-19T11:26:25;6.88;;;2.28;;
28353;SDS011;15603;50.878;8.036;2023-10-19T11:28:58;8.52;;;1.90;;
28353;SDS011;15603;50.878;8.036;2023-10-19T11:31:27;6.95;;;1.55;;
28353;SDS011;15603;50.878;8.036;2023-10-19T11:33:57;8.18;;;1.92;;
28353;SDS011;15603;50.878;8.036;2023-10-19T11:36:27;8.00;;;1.63;;
28353;SDS011;15603;50.878;8.036;2023-10-19T11:38:54;5.78;;;1.27;;
28353;SDS011;15603;50.878;8.036;2023-10-19T11:41:21;11.00;;;1.77;;
28353;SDS011;15603;50.878;8.036;2023-10-19T11:43:49;5.55;;;1.13;;
28353;SDS011;15603;50.878;8.036;2023-10-19T11:46:17;2.78;;;1.08;;
28353;SDS011;15603;50.878;8.036;2023-10-19T11:48:52;2.75;;;0.95;;
28353;SDS011;15603;50.878;8.036;2023-10-19T11:51:19;5.40;;;1.77;;
28353;SDS011;15603;50.878;8.036;2023-10-19T11:53:46;5.30;;;1.25;;
28353;SDS011;15603;50.878;8.036;2023-10-19T11:56:13;4.43;;;1.42;;
28353;SDS011;15603;50.878;8.036;2023-10-19T11:58:43;9.80;;;1.55;;
28353;SDS011;15603;50.878;8.036;2023-10-19T12:01:14;5.55;;;0.95;;
28353;SDS011;15603;50.878;8.036;2023-10-19T12:03:44;7.63;;;1.25;;
28353;SDS011;15603;50.878;8.036;2023-10-19T12:06:15;9.70;;;1.77;;
28353;SDS011;15603;50.878;8.036;2023-10-19T12:08:46;5.90;;;1.40;;
28353;SDS011;15603;50.878;8.036;2023-10-19T12:11:14;3.97;;;1.10;;
28353;SDS011;15603;50.878;8.036;2023-10-19T12:13:42;12.30;;;2.28;;
28353;SDS011;15603;50.878;8.036;2023-10-19T12:16:13;8.75;;;1.63;;
28353;SDS011;15603;50.878;8.036;2023-10-19T12:18:44;3.22;;;1.20;;
28353;SDS011;15603;50.878;8.036;2023-10-19T12:21:13;7.32;;;1.33;;
28353;SDS011;15603;50.878;8.036;2023-10-19T12:23:44;5.88;;;0.95;;
28353;SDS011;15603;50.878;8.036;2023-10-19T12:26:17;4.63;;;1.52;;
28353;SDS011;15603;50.878;8.036;2023-10-19T12:28:46;4.32;;;1.23;;
28353;SDS011;15603;50.878;8.036;2023-10-19T12:31:16;6.72;;;1.50;;
28353;SDS011;15603;50.878;8.036;2023-10-19T12:33:46;3.05;;;0.90;;
28353;SDS011;15603;50.878;8.036;2023-10-19T12:36:13;4.88;;;1.27;;
28353;SDS011;15603;50.878;8.036;2023-10-19T12:38:59;9.18;;;1.20;;
28353;SDS011;15603;50.878;8.036;2023-10-19T12:41:28;3.58;;;1.15;;
28353;SDS011;15603;50.878;8.036;2023-10-19T12:43:56;2.70;;;0.90;;
28353;SDS011;15603;50.878;8.036;2023-10-19T12:46:28;4.70;;;1.38;;
28353;SDS011;15603;50.878;8.036;2023-10-19T12:48:57;4.72;;;1.00;;
28353;SDS011;15603;50.878;8.036;2023-10-19T12:51:25;9.77;;;1.40;;
28353;SDS011;15603;50.878;8.036;2023-10-19T12:53:52;7.70;;;1.25;;
28353;SDS011;15603;50.878;8.036;2023-10-19T12:56:20;9.00;;;1.50;;
28353;SDS011;15603;50.878;8.036;2023-10-19T12:58:53;10.35;;;1.73;;
28353;SDS011;15603;50.878;8.036;2023-10-19T13:01:21;9.82;;;1.63;;
28353;SDS011;15603;50.878;8.036;2023-10-19T13:03:48;7.05;;;1.65;;
28353;SDS011;15603;50.878;8.036;2023-10-19T13:06:19;2.28;;;1.05;;
28353;SDS011;15603;50.878;8.036;2023-10-19T13:08:47;4.60;;;1.60;;
28353;SDS011;15603;50.878;8.036;2023-10-19T13:11:14;10.98;;;1.80;;
28353;SDS011;15603;50.878;8.036;2023-10-19T13:13:44;11.57;;;1.50;;
28353;SDS011;15603;50.878;8.036;2023-10-19T13:16:12;7.05;;;1.52;;
28353;SDS011;15603;50.878;8.036;2023-10-19T13:18:40;6.30;;;1.38;;
28353;SDS011;15603;50.878;8.036;2023-10-19T13:21:08;9.80;;;1.90;;
28353;SDS011;15603;50.878;8.036;2023-10-19T13:23:43;13.30;;;2.28;;
28353;SDS011;15603;50.878;8.036;2023-10-19T13:26:11;12.65;;;2.33;;
28353;SDS011;15603;50.878;8.036;2023-10-19T13:28:44;5.97;;;1.80;;
28353;SDS011;15603;50.878;8.036;2023-10-19T13:31:12;2.58;;;1.15;;
28353;SDS011;15603;50.878;8.036;2023-10-19T13:33:43;4.07;;;1.30;;
28353;SDS011;15603;50.878;8.036;2023-10-19T13:36:12;4.93;;;1.60;;
28353;SDS011;15603;50.878;8.036;2023-10-19T13:38:40;7.45;;;1.73;;
28353;SDS011;15603;50.878;8.036;2023-10-19T13:41:08;6.78;;;2.65;;
28353;SDS011;15603;50.878;8.036;2023-10-19T13:43:40;8.70;;;2.33;;
28353;SDS011;15603;50.878;8.036;2023-10-19T13:46:09;4.75;;;1.90;;
28353;SDS011;15603;50.878;8.036;2023-10-19T13:48:36;5.15;;;1.92;;
28353;SDS011;15603;50.878;8.036;2023-10-19T13:51:06;7.05;;;2.33;;
28353;SDS011;15603;50.878;8.036;2023-10-19T13:53:41;6.68;;;2.15;;
28353;SDS011;15603;50.878;8.036;2023-10-19T13:56:08;5.70;;;1.30;;
28353;SDS011;15603;50.878;8.036;2023-10-19T13:58:37;6.97;;;2.20;;
28353;SDS011;15603;50.878;8.036;2023-10-19T14:01:08;8.70;;;2.85;;
28353;SDS011;15603;50.878;8.036;2023-10-19T14:03:37;6.60;;;2.08;;
28353;SDS011;15603;50.878;8.036;2023-10-19T14:06:05;5.15;;;2.50;;
28353;SDS011;15603;50.878;8.036;2023-10-19T14:08:39;11.07;;;2.97;;
28353;SDS011;15603;50.878;8.036;2023-10-19T14:11:06;9.00;;;2.35;;
28353;SDS011;15603;50.878;8.036;2023-10-19T14:13:34;8.90;;;2.55;;
28353;SDS011;15603;50.878;8.036;2023-10-19T14:16:05;7.25;;;1.60;;
28353;SDS011;15603;50.878;8.036;2023-10-19T14:18:35;8.52;;;3.15;;
28353;SDS011;15603;50.878;8.036;2023-10-19T14:21:16;8.07;;;2.67;;
28353;SDS011;15603;50.878;8.036;2023-10-19T14:26:14;9.07;;;3.05;;
28353;SDS011;15603;50.878;8.036;2023-10-19T14:28:42;9.13;;;3.15;;
28353;SDS011;15603;50.878;8.036;2023-10-19T14:31:09;11.10;;;4.30;;
28353;SDS011;15603;50.878;8.036;2023-10-19T14:33:38;18.02;;;4.15;;
28353;SDS011;15603;50.878;8.036;2023-10-19T14:36:05;5.43;;;2.13;;
28353;SDS011;15603;50.878;8.036;2023-10-19T14:38:34;7.35;;;2.88;;
28353;SDS011;15603;50.878;8.036;2023-10-19T14:41:02;8.18;;;2.92;;
28353;SDS011;15603;50.878;8.036;2023-10-19T14:43:29;14.80;;;3.20;;
28353;SDS011;15603;50.878;8.036;2023-10-19T14:45:57;6.25;;;2.88;;
28353;SDS011;15603;50.878;8.036;2023-10-19T14:48:25;7.40;;;2.92;;
28353;SDS011;15603;50.878;8.036;2023-10-19T14:50:56;6.68;;;2.97;;
28353;SDS011;15603;50.878;8.036;2023-10-19T14:53:24;6.10;;;2.72;;
28353;SDS011;15603;50.878;8.036;2023-10-19T14:55:52;7.38;;;2.83;;
28353;SDS011;15603;50.878;8.036;2023-10-19T14:58:21;11.93;;;3.28;;
28353;SDS011;15603;50.878;8.036;2023-10-19T15:00:48;5.97;;;3.25;;
28353;SDS011;15603;50.878;8.036;2023-10-19T15:03:24;13.52;;;4.63;;
28353;SDS011;15603;50.878;8.036;2023-10-19T15:05:52;20.75;;;6.10;;
28353;SDS011;15603;50.878;8.036;2023-10-19T15:08:20;17.00;;;5.75;;
28353;SDS011;15603;50.878;8.036;2023-10-19T15:10:51;15.77;;;4.95;;
28353;SDS011;15603;50.878;8.036;2023-10-19T15:13:21;13.52;;;4.50;;
28353;SDS011;15603;50.878;8.036;2023-10-19T15:15:49;7.00;;;2.88;;
28353;SDS011;15603;50.878;8.036;2023-10-19T15:18:16;10.07;;;3.15;;
28353;SDS011;15603;50.878;8.036;2023-10-19T15:20:44;5.38;;;3.35;;
28353;SDS011;15603;50.878;8.036;2023-10-19T15:23:13;9.32;;;4.13;;